createdAt,value
2023-03-07T06:12:15.792Z,66.40
2023-03-07T06:12:51.110Z,67.30
2023-03-07T06:13:28.654Z,68.20
2023-03-07T06:14:02.523Z,68.80
2023-03-07T06:14:35.386Z,69.60
2023-03-07T06:15:14.963Z,69.90
2023-03-07T06:15:50.969Z,70.30
2023-03-07T06:16:24.788Z,70.50
2023-03-07T06:16:58.684Z,70.00
2023-03-07T06:17:32.041Z,69.10
2023-03-07T06:18:07.478Z,67.30
2023-03-07T06:22:19.881Z,56.40
2023-03-07T06:22:55.189Z,55.60
2023-03-07T06:27:35.931Z,43.60
2023-03-07T06:28:13.393Z,44.20
2023-03-07T06:28:54.004Z,44.30
2023-03-07T06:29:31.825Z,44.10
2023-03-07T06:30:07.318Z,43.80
2023-03-07T06:30:41.878Z,43.70
2023-03-07T06:31:19.218Z,43.20
2023-03-07T06:31:55.448Z,43.00
2023-03-07T06:32:28.787Z,42.80
2023-03-07T06:33:02.817Z,42.30
2023-03-07T06:33:37.110Z,42.00
2023-03-07T06:34:14.784Z,42.10
2023-03-07T06:34:49.778Z,42.00
2023-03-07T06:35:24.838Z,41.90
2023-03-07T06:36:06.113Z,41.90
2023-03-07T06:36:41.231Z,41.40
2023-03-07T06:37:18.160Z,41.10
2023-03-07T06:38:11.523Z,41.50
2023-03-07T06:38:49.204Z,41.90
2023-03-07T06:39:31.694Z,42.10
2023-03-07T06:40:12.378Z,41.70
2023-03-07T06:40:49.908Z,42.00
2023-03-07T06:41:23.157Z,42.40
2023-03-07T06:42:12.187Z,42.70
2023-03-07T06:42:46.538Z,43.00
2023-03-07T06:43:23.411Z,43.40
2023-03-07T06:44:21.643Z,43.70
2023-03-07T06:44:54.313Z,44.00
2023-03-07T06:45:47.300Z,44.40
2023-03-07T06:46:35.577Z,44.40
2023-03-07T06:47:16.304Z,44.40
2023-03-07T06:47:53.004Z,44.60
2023-03-07T06:48:48.426Z,44.70
2023-03-07T06:49:29.658Z,45.00
2023-03-07T06:50:08.853Z,45.20
2023-03-07T06:50:45.172Z,45.20
2023-03-07T06:51:38.082Z,45.20
2023-03-07T06:52:30.168Z,45.20
2023-03-07T06:54:11.114Z,44.90
2023-03-07T06:57:10.527Z,45.50
2023-03-07T06:57:52.592Z,46.30
2023-03-07T06:58:32.979Z,46.30
2023-03-07T06:59:06.145Z,45.80
2023-03-07T06:59:44.268Z,45.40
2023-03-07T07:00:26.870Z,45.20
2023-03-07T07:00:59.990Z,45.20
2023-03-07T07:02:01.092Z,45.20
2023-03-07T07:02:53.062Z,45.20
2023-03-07T07:03:43.255Z,45.30
2023-03-07T07:04:28.041Z,45.60
2023-03-07T07:07:32.307Z,46.10
2023-03-07T07:08:08.367Z,46.50
2023-03-07T07:08:41.982Z,46.70
2023-03-07T07:09:15.804Z,47.00
2023-03-07T07:09:48.470Z,47.20
2023-03-07T07:10:22.159Z,47.30
2023-03-07T07:10:59.599Z,47.50
2023-03-07T07:11:35.874Z,47.70
2023-03-07T07:12:19.641Z,47.90
2023-03-07T07:12:57.266Z,48.20
2023-03-07T07:13:38.525Z,48.60
2023-03-07T07:14:13.709Z,48.90
2023-03-07T07:14:51.276Z,49.20
2023-03-07T07:15:28.925Z,49.30
2023-03-07T07:16:08.138Z,49.50
2023-03-07T07:16:43.471Z,49.60
2023-03-07T07:17:17.856Z,49.90
2023-03-07T07:17:53.290Z,50.10
2023-03-07T07:18:29.596Z,50.10
2023-03-07T07:19:04.918Z,50.30
2023-03-07T09:38:13.605Z,34.20
2023-03-07T09:38:47.426Z,34.50
2023-03-07T09:39:21.082Z,34.90
2023-03-07T09:39:54.993Z,34.90
2023-03-07T09:40:33.590Z,34.80
2023-03-07T09:41:15.140Z,34.30
2023-03-07T09:42:00.609Z,34.60
2023-03-07T09:42:41.073Z,34.60
2023-03-07T09:43:21.205Z,34.90
2023-03-07T09:44:33.348Z,35.10
2023-03-07T09:45:39.585Z,35.40
2023-03-07T09:46:29.962Z,35.20
2023-03-07T09:47:20.000Z,35.10
2023-03-07T09:48:22.608Z,35.00
2023-03-07T09:49:24.303Z,34.60
2023-03-07T09:50:03.280Z,34.40
2023-03-07T09:50:44.582Z,34.20
2023-03-07T09:51:23.061Z,34.20
2023-03-07T09:52:00.794Z,34.40
2023-03-07T09:52:40.259Z,34.50
2023-03-07T09:53:19.815Z,34.50
2023-03-07T09:53:56.900Z,34.80
2023-03-07T09:54:39.661Z,35.00
2023-03-07T09:55:17.237Z,34.90
2023-03-07T09:55:54.902Z,34.90
2023-03-07T09:56:36.595Z,35.00
2023-03-07T09:57:19.019Z,35.00
2023-03-07T09:57:56.276Z,34.90
2023-03-07T09:58:30.758Z,34.90
2023-03-07T09:59:22.449Z,35.10
2023-03-07T10:00:01.151Z,35.00
2023-03-07T10:00:38.235Z,35.30
2023-03-07T10:01:13.576Z,35.50
2023-03-07T10:01:48.063Z,35.50
2023-03-07T10:02:31.042Z,35.20
2023-03-07T10:03:18.476Z,35.30
2023-03-07T10:03:59.167Z,35.40
2023-03-07T10:04:44.000Z,35.30
2023-03-07T10:05:29.728Z,35.20
2023-03-07T10:06:09.523Z,35.20
2023-03-07T10:06:43.543Z,34.80
2023-03-07T10:07:18.415Z,34.80
2023-03-07T10:07:52.115Z,34.80
2023-03-07T10:08:29.867Z,34.80
2023-03-07T10:09:06.620Z,34.50
2023-03-07T10:09:40.484Z,34.50
2023-03-07T10:10:20.724Z,34.60
2023-03-07T10:11:04.032Z,34.50
2023-03-07T10:12:14.459Z,34.50
2023-03-07T10:13:04.029Z,34.30
2023-03-07T10:14:00.526Z,34.20
2023-03-07T10:14:50.094Z,34.40
2023-03-07T10:15:45.837Z,34.20
2023-03-07T10:16:27.130Z,34.00
2023-03-07T10:17:09.999Z,33.50
2023-03-07T10:18:04.770Z,33.40
2023-03-07T10:18:55.573Z,33.30
2023-03-07T10:19:32.663Z,33.40
2023-03-07T10:20:17.570Z,33.20
2023-03-07T10:20:57.429Z,33.30
2023-03-07T10:21:43.051Z,33.10
2023-03-07T10:22:25.593Z,33.20
2023-03-07T10:23:40.668Z,33.20
2023-03-07T10:24:38.095Z,33.10
2023-03-07T10:25:24.276Z,33.20
2023-03-07T10:26:04.922Z,33.40
2023-03-07T10:26:47.864Z,33.70
2023-03-07T10:27:34.692Z,34.00
2023-03-07T10:28:17.165Z,33.60
2023-03-07T10:28:50.957Z,33.50
2023-03-07T10:29:29.031Z,33.40
2023-03-07T10:30:15.951Z,33.60
2023-03-07T10:30:58.557Z,33.70
2023-03-07T10:31:48.705Z,34.00
2023-03-07T10:32:31.012Z,33.70
2023-03-07T10:33:10.576Z,33.20
2023-03-07T10:33:50.326Z,33.10
2023-03-07T10:34:32.659Z,33.30
2023-03-07T10:35:17.747Z,33.30
2023-03-07T10:35:59.957Z,33.00
2023-03-07T10:36:38.965Z,32.60
2023-03-07T10:37:18.987Z,32.70
2023-03-07T10:37:57.005Z,32.70
2023-03-07T10:38:36.733Z,32.90
2023-03-07T10:39:22.020Z,33.00
2023-03-07T10:39:57.832Z,32.90
2023-03-07T10:40:37.359Z,32.60
2023-03-07T10:41:19.151Z,32.60
2023-03-07T10:41:52.087Z,32.90
2023-03-07T10:42:27.500Z,33.20
2023-03-07T10:43:01.367Z,33.50
2023-03-07T10:43:44.717Z,33.40
2023-03-07T10:44:30.859Z,33.10
2023-03-07T10:45:04.749Z,33.00
2023-03-07T10:45:41.439Z,33.20
2023-03-07T10:46:26.852Z,33.00
2023-03-07T10:47:01.639Z,33.10
2023-03-07T10:47:34.997Z,33.70
